HYS221 LROP-LFPG
Flight info
| Callsign | HYS221 |
|---|---|
| Flight time | 2h 50m |
| Altitude | 38000 |
| Route | SOKRU DCT OXDOC DCT DEGET DCT ABETI DCT TAGAS DCT RENKA DCT MAMOR DCT ASPAT DCT VIBOM DCT BETEX DCT IDOSA UN857 TOLVU DCT RAPOR DCT VEDUS |
| Aircraft | A320/M-SDE3FGHIRWY/LB1 |
Departure
| Time | 2026-05-08 10:25 |
|---|---|
| Airport | Bucharest Henri Coandă International Airport (LROP) |
Arrival
| Time | 2026-05-08 13:16 |
|---|---|
| Airport | Charles de Gaulle International Airport (LFPG) |
| Time | Latitude | Longitude | Altitude | Speed | Heading |
|---|---|---|---|---|---|
| 2026-05-08 10:10 | 44.57265 | 26.08039 | 320 ft | 0 kts | 354° |
| 2026-05-08 10:17 | 44.57260 | 26.08040 | 320 ft | 3 kts | 354° |
| 2026-05-08 10:17 | 44.57235 | 26.08044 | 320 ft | 2 kts | 354° |
| 2026-05-08 10:17 | 44.57212 | 26.08047 | 318 ft | 4 kts | 4° |
| 2026-05-08 10:17 | 44.57193 | 26.08039 | 319 ft | 4 kts | 75° |
| 2026-05-08 10:18 | 44.57190 | 26.08008 | 318 ft | 1 kts | 84° |
| 2026-05-08 10:18 | 44.57190 | 26.08007 | 319 ft | 0 kts | 84° |
| 2026-05-08 10:21 | 44.57190 | 26.08016 | 319 ft | 2 kts | 84° |
| 2026-05-08 10:21 | 44.57192 | 26.08045 | 319 ft | 5 kts | 84° |
| 2026-05-08 10:22 | 44.57197 | 26.08107 | 320 ft | 7 kts | 84° |
| 2026-05-08 10:22 | 44.57204 | 26.08191 | 320 ft | 10 kts | 84° |
| 2026-05-08 10:22 | 44.57216 | 26.08300 | 320 ft | 12 kts | 74° |
| 2026-05-08 10:22 | 44.57231 | 26.08425 | 320 ft | 14 kts | 85° |
| 2026-05-08 10:23 | 44.57293 | 26.08496 | 320 ft | 14 kts | 353° |
| 2026-05-08 10:23 | 44.57399 | 26.08479 | 319 ft | 16 kts | 353° |
| 2026-05-08 10:23 | 44.57516 | 26.08462 | 321 ft | 18 kts | 354° |
| 2026-05-08 10:23 | 44.57633 | 26.08447 | 323 ft | 14 kts | 355° |
| 2026-05-08 10:24 | 44.57672 | 26.08523 | 323 ft | 7 kts | 84° |
| 2026-05-08 10:24 | 44.57672 | 26.08531 | 323 ft | 1 kts | 84° |
| 2026-05-08 10:24 | 44.57688 | 26.08738 | 321 ft | 56 kts | 84° |
| 2026-05-08 10:24 | 44.57753 | 26.09591 | 319 ft | 116 kts | 84° |
| 2026-05-08 10:25 | 44.57855 | 26.10954 | 321 ft | 163 kts | 84° |
| 2026-05-08 10:25 | 44.57998 | 26.12569 | 795 ft | 166 kts | 75° |
| 2026-05-08 10:25 | 44.58446 | 26.14046 | 1354 ft | 167 kts | 54° |
| 2026-05-08 10:25 | 44.59306 | 26.15130 | 1908 ft | 169 kts | 23° |
| 2026-05-08 10:26 | 44.60479 | 26.15384 | 2199 ft | 181 kts | 343° |
| 2026-05-08 10:26 | 44.61561 | 26.14426 | 2386 ft | 196 kts | 305° |
| 2026-05-08 10:26 | 44.62366 | 26.12745 | 2637 ft | 219 kts | 302° |
| 2026-05-08 10:26 | 44.63243 | 26.10850 | 2866 ft | 243 kts | 302° |
| 2026-05-08 10:27 | 44.64203 | 26.08776 | 3437 ft | 259 kts | 302° |
| 2026-05-08 10:27 | 44.65196 | 26.06644 | 4280 ft | 263 kts | 302° |
| 2026-05-08 10:27 | 44.66201 | 26.04489 | 5148 ft | 265 kts | 302° |
| 2026-05-08 10:27 | 44.66874 | 26.03048 | 5687 ft | 267 kts | 302° |
| 2026-05-08 10:28 | 44.67901 | 26.00851 | 6493 ft | 270 kts | 302° |
| 2026-05-08 10:28 | 44.68942 | 25.98631 | 7246 ft | 274 kts | 302° |
| 2026-05-08 10:28 | 44.69997 | 25.96378 | 8003 ft | 277 kts | 302° |
| 2026-05-08 10:28 | 44.71063 | 25.94101 | 8745 ft | 281 kts | 302° |
| 2026-05-08 10:29 | 44.72140 | 25.91793 | 9470 ft | 284 kts | 301° |
| 2026-05-08 10:29 | 44.73229 | 25.89457 | 10163 ft | 288 kts | 301° |
| 2026-05-08 10:29 | 44.74364 | 25.87020 | 10404 ft | 309 kts | 301° |
| 2026-05-08 10:29 | 44.75579 | 25.84401 | 10554 ft | 330 kts | 301° |
| 2026-05-08 10:30 | 44.76851 | 25.81658 | 11014 ft | 338 kts | 302° |
| 2026-05-08 10:30 | 44.78146 | 25.78877 | 11622 ft | 341 kts | 302° |
| 2026-05-08 10:30 | 44.79453 | 25.76071 | 12269 ft | 344 kts | 302° |
| 2026-05-08 10:30 | 44.80756 | 25.73238 | 12910 ft | 346 kts | 301° |
| 2026-05-08 10:31 | 44.82010 | 25.70327 | 13568 ft | 348 kts | 299° |
| 2026-05-08 10:31 | 44.83226 | 25.67363 | 14167 ft | 351 kts | 298° |
| 2026-05-08 10:31 | 44.84426 | 25.64361 | 14717 ft | 353 kts | 298° |
| 2026-05-08 10:31 | 44.85631 | 25.61330 | 15248 ft | 356 kts | 298° |
| 2026-05-08 10:32 | 44.86851 | 25.58277 | 15777 ft | 359 kts | 298° |
| 2026-05-08 10:32 | 44.88087 | 25.55206 | 16301 ft | 362 kts | 298° |
| 2026-05-08 10:32 | 44.89344 | 25.52109 | 16815 ft | 365 kts | 298° |
| 2026-05-08 10:32 | 44.90610 | 25.48994 | 17350 ft | 368 kts | 298° |
| 2026-05-08 10:33 | 44.91891 | 25.45846 | 17875 ft | 371 kts | 298° |
| 2026-05-08 10:33 | 44.93179 | 25.42672 | 18408 ft | 374 kts | 298° |
| 2026-05-08 10:33 | 44.94474 | 25.39470 | 18888 ft | 377 kts | 298° |
| 2026-05-08 10:33 | 44.95776 | 25.36247 | 19403 ft | 379 kts | 298° |
| 2026-05-08 10:34 | 44.97085 | 25.33003 | 19922 ft | 381 kts | 298° |
| 2026-05-08 10:34 | 44.98398 | 25.29737 | 20450 ft | 384 kts | 298° |
| 2026-05-08 10:34 | 44.99718 | 25.26450 | 20966 ft | 386 kts | 297° |
| 2026-05-08 10:34 | 45.01043 | 25.23147 | 21467 ft | 388 kts | 297° |
| 2026-05-08 10:35 | 45.02377 | 25.19823 | 21956 ft | 390 kts | 297° |
| 2026-05-08 10:35 | 45.03719 | 25.16482 | 22434 ft | 392 kts | 297° |
| 2026-05-08 10:35 | 45.05067 | 25.13130 | 22898 ft | 394 kts | 297° |
| 2026-05-08 10:35 | 45.06423 | 25.09753 | 23356 ft | 396 kts | 297° |
| 2026-05-08 10:36 | 45.07779 | 25.06356 | 23769 ft | 398 kts | 297° |
| 2026-05-08 10:36 | 45.09139 | 25.02940 | 24134 ft | 399 kts | 297° |
| 2026-05-08 10:36 | 45.10505 | 24.99508 | 24502 ft | 401 kts | 297° |
| 2026-05-08 10:36 | 45.11895 | 24.96015 | 24859 ft | 403 kts | 297° |
| 2026-05-08 10:37 | 45.13253 | 24.92597 | 25217 ft | 404 kts | 297° |
| 2026-05-08 10:37 | 45.14650 | 24.89076 | 25592 ft | 405 kts | 297° |
| 2026-05-08 10:37 | 45.16031 | 24.85592 | 25918 ft | 407 kts | 297° |
| 2026-05-08 10:37 | 45.17419 | 24.82087 | 26256 ft | 409 kts | 297° |
| 2026-05-08 10:38 | 45.18813 | 24.78568 | 26596 ft | 410 kts | 297° |
| 2026-05-08 10:38 | 45.20209 | 24.75036 | 26933 ft | 412 kts | 297° |
| 2026-05-08 10:38 | 45.21610 | 24.71484 | 27258 ft | 414 kts | 297° |
| 2026-05-08 10:38 | 45.23018 | 24.67913 | 27576 ft | 415 kts | 297° |
| 2026-05-08 10:39 | 45.24430 | 24.64329 | 27899 ft | 417 kts | 297° |
| 2026-05-08 10:39 | 45.25846 | 24.60727 | 28228 ft | 419 kts | 296° |
| 2026-05-08 10:39 | 45.27267 | 24.57111 | 28598 ft | 419 kts | 296° |
| 2026-05-08 10:39 | 45.28682 | 24.53502 | 29055 ft | 418 kts | 296° |
| 2026-05-08 10:40 | 45.30089 | 24.49909 | 29519 ft | 416 kts | 296° |
| 2026-05-08 10:40 | 45.31496 | 24.46316 | 29967 ft | 415 kts | 296° |
| 2026-05-08 10:40 | 45.32895 | 24.42738 | 30385 ft | 414 kts | 296° |
| 2026-05-08 10:40 | 45.34289 | 24.39171 | 30771 ft | 412 kts | 296° |
| 2026-05-08 10:41 | 45.35674 | 24.35617 | 31210 ft | 409 kts | 296° |
| 2026-05-08 10:41 | 45.37049 | 24.32088 | 31602 ft | 408 kts | 295° |
| 2026-05-08 10:41 | 45.38420 | 24.28561 | 31977 ft | 407 kts | 295° |
| 2026-05-08 10:41 | 45.39783 | 24.25039 | 32382 ft | 406 kts | 295° |
| 2026-05-08 10:42 | 45.41146 | 24.21514 | 32794 ft | 406 kts | 295° |
| 2026-05-08 10:42 | 45.42508 | 24.18000 | 33240 ft | 405 kts | 295° |
| 2026-05-08 10:42 | 45.43863 | 24.14500 | 33645 ft | 403 kts | 295° |
| 2026-05-08 10:42 | 45.45215 | 24.11003 | 34018 ft | 402 kts | 295° |
| 2026-05-08 10:43 | 45.46560 | 24.07516 | 34328 ft | 401 kts | 295° |
| 2026-05-08 10:43 | 45.47900 | 24.04033 | 34605 ft | 401 kts | 294° |
| 2026-05-08 10:43 | 45.49241 | 24.00547 | 34884 ft | 400 kts | 294° |
| 2026-05-08 10:43 | 45.50576 | 23.97071 | 35152 ft | 400 kts | 294° |
| 2026-05-08 10:44 | 45.51908 | 23.93595 | 35421 ft | 399 kts | 294° |
| 2026-05-08 10:44 | 45.53234 | 23.90133 | 35664 ft | 398 kts | 294° |
| 2026-05-08 10:44 | 45.54561 | 23.86669 | 35902 ft | 397 kts | 294° |
| 2026-05-08 10:44 | 45.55886 | 23.83206 | 36038 ft | 398 kts | 294° |
| 2026-05-08 10:45 | 45.57216 | 23.79718 | 36068 ft | 402 kts | 294° |
| 2026-05-08 10:45 | 45.59920 | 23.72598 | 36058 ft | 412 kts | 294° |
| 2026-05-08 10:46 | 45.62660 | 23.65379 | 36061 ft | 414 kts | 294° |
| 2026-05-08 10:46 | 45.65410 | 23.58141 | 36062 ft | 414 kts | 294° |
| 2026-05-08 10:47 | 45.68159 | 23.50902 | 36059 ft | 414 kts | 294° |
| 2026-05-08 10:47 | 45.70896 | 23.43647 | 36064 ft | 414 kts | 294° |
| 2026-05-08 10:48 | 45.73625 | 23.36381 | 36080 ft | 415 kts | 294° |
| 2026-05-08 10:48 | 45.76350 | 23.29095 | 36084 ft | 415 kts | 294° |
| 2026-05-08 10:49 | 45.79078 | 23.21805 | 36080 ft | 415 kts | 294° |
| 2026-05-08 10:49 | 45.81800 | 23.14515 | 36078 ft | 415 kts | 294° |
| 2026-05-08 10:50 | 45.84519 | 23.07221 | 36088 ft | 415 kts | 294° |
| 2026-05-08 10:50 | 45.87233 | 22.99921 | 36102 ft | 415 kts | 294° |
| 2026-05-08 10:51 | 45.89939 | 22.92613 | 36096 ft | 414 kts | 294° |
| 2026-05-08 10:51 | 45.92632 | 22.85305 | 36086 ft | 414 kts | 293° |
| 2026-05-08 10:52 | 45.95317 | 22.77986 | 36087 ft | 414 kts | 293° |
| 2026-05-08 10:52 | 45.97999 | 22.70668 | 36097 ft | 414 kts | 293° |
| 2026-05-08 10:53 | 46.00680 | 22.63347 | 36087 ft | 414 kts | 293° |
| 2026-05-08 10:53 | 46.03351 | 22.56015 | 36086 ft | 414 kts | 293° |
| 2026-05-08 10:54 | 46.06025 | 22.48673 | 36080 ft | 414 kts | 293° |
| 2026-05-08 10:54 | 46.08697 | 22.41321 | 36081 ft | 414 kts | 293° |
| 2026-05-08 10:55 | 46.11363 | 22.33958 | 36095 ft | 415 kts | 292° |
| 2026-05-08 10:55 | 46.14025 | 22.26583 | 36090 ft | 415 kts | 292° |
| 2026-05-08 10:56 | 46.16686 | 22.19191 | 36084 ft | 415 kts | 292° |
| 2026-05-08 10:56 | 46.19352 | 22.11791 | 36082 ft | 415 kts | 292° |
| 2026-05-08 10:57 | 46.22001 | 22.04384 | 36096 ft | 415 kts | 292° |
| 2026-05-08 10:57 | 46.25969 | 21.93250 | 36093 ft | 416 kts | 292° |
| 2026-05-08 10:58 | 46.28614 | 21.85822 | 36089 ft | 416 kts | 292° |
| 2026-05-08 10:58 | 46.31256 | 21.78375 | 36083 ft | 416 kts | 292° |
| 2026-05-08 10:59 | 46.33886 | 21.70925 | 36120 ft | 416 kts | 292° |
| 2026-05-08 10:59 | 46.36502 | 21.63516 | 36092 ft | 412 kts | 292° |
| 2026-05-08 11:00 | 46.39098 | 21.56133 | 36094 ft | 411 kts | 292° |
| 2026-05-08 11:00 | 46.41682 | 21.48753 | 36097 ft | 411 kts | 292° |
| 2026-05-08 11:01 | 46.44262 | 21.41373 | 36092 ft | 410 kts | 292° |
| 2026-05-08 11:01 | 46.46843 | 21.33988 | 36102 ft | 410 kts | 292° |
| 2026-05-08 11:02 | 46.50618 | 21.22866 | 36094 ft | 409 kts | 290° |
| 2026-05-08 11:03 | 46.52894 | 21.15318 | 36089 ft | 408 kts | 289° |
| 2026-05-08 11:03 | 46.55115 | 21.07736 | 36088 ft | 408 kts | 289° |
| 2026-05-08 11:04 | 46.57362 | 21.00170 | 36104 ft | 408 kts | 289° |
| 2026-05-08 11:04 | 46.59631 | 20.92618 | 36095 ft | 407 kts | 289° |
| 2026-05-08 11:05 | 46.61897 | 20.85073 | 36088 ft | 407 kts | 289° |
| 2026-05-08 11:05 | 46.64148 | 20.77524 | 36085 ft | 407 kts | 289° |
| 2026-05-08 11:06 | 46.66026 | 20.71195 | 36083 ft | 406 kts | 289° |
| 2026-05-08 11:06 | 46.68630 | 20.62423 | 36100 ft | 406 kts | 289° |
| 2026-05-08 11:07 | 46.70500 | 20.56093 | 36095 ft | 406 kts | 289° |
| 2026-05-08 11:07 | 46.72723 | 20.48539 | 36090 ft | 405 kts | 289° |
| 2026-05-08 11:08 | 46.74939 | 20.40985 | 36084 ft | 405 kts | 289° |
| 2026-05-08 11:08 | 46.77146 | 20.33425 | 36081 ft | 405 kts | 289° |
| 2026-05-08 11:09 | 46.79353 | 20.25867 | 36076 ft | 405 kts | 289° |
| 2026-05-08 11:09 | 46.81557 | 20.18303 | 36077 ft | 405 kts | 289° |
| 2026-05-08 11:10 | 46.83759 | 20.10734 | 36079 ft | 405 kts | 289° |
| 2026-05-08 11:10 | 46.85944 | 20.03157 | 36080 ft | 405 kts | 289° |
| 2026-05-08 11:11 | 46.88127 | 19.95578 | 36103 ft | 405 kts | 289° |
| 2026-05-08 11:11 | 46.90305 | 19.87997 | 36114 ft | 404 kts | 289° |
| 2026-05-08 11:12 | 46.92473 | 19.80411 | 36109 ft | 404 kts | 289° |
| 2026-05-08 11:12 | 46.94640 | 19.72840 | 36104 ft | 403 kts | 289° |
| 2026-05-08 11:13 | 46.96796 | 19.65267 | 36081 ft | 403 kts | 289° |
| 2026-05-08 11:13 | 46.98938 | 19.57689 | 36093 ft | 403 kts | 289° |
| 2026-05-08 11:14 | 47.01077 | 19.50108 | 36087 ft | 403 kts | 289° |
| 2026-05-08 11:14 | 47.03212 | 19.42518 | 36085 ft | 403 kts | 289° |
| 2026-05-08 11:15 | 47.05347 | 19.34933 | 36085 ft | 403 kts | 289° |
| 2026-05-08 11:15 | 47.07480 | 19.27342 | 36083 ft | 402 kts | 289° |
| 2026-05-08 11:16 | 47.09603 | 19.19748 | 36097 ft | 402 kts | 288° |
| 2026-05-08 11:16 | 47.11719 | 19.12140 | 36085 ft | 402 kts | 288° |
| 2026-05-08 11:17 | 47.13827 | 19.04534 | 36082 ft | 402 kts | 288° |
| 2026-05-08 11:17 | 47.15935 | 18.96915 | 36090 ft | 402 kts | 288° |
| 2026-05-08 11:18 | 47.18036 | 18.89294 | 36091 ft | 402 kts | 288° |
| 2026-05-08 11:18 | 47.20135 | 18.81669 | 36100 ft | 402 kts | 288° |
| 2026-05-08 11:19 | 47.22227 | 18.74045 | 36091 ft | 402 kts | 288° |
| 2026-05-08 11:19 | 47.24308 | 18.66416 | 36085 ft | 402 kts | 288° |
| 2026-05-08 11:20 | 47.26388 | 18.58783 | 36098 ft | 402 kts | 288° |
| 2026-05-08 11:20 | 47.28461 | 18.51147 | 36107 ft | 402 kts | 288° |
| 2026-05-08 11:21 | 47.30528 | 18.43505 | 36097 ft | 402 kts | 288° |
| 2026-05-08 11:21 | 47.32590 | 18.35858 | 36097 ft | 402 kts | 288° |
| 2026-05-08 11:22 | 47.34645 | 18.28202 | 36097 ft | 402 kts | 288° |
| 2026-05-08 11:22 | 47.36698 | 18.20542 | 36093 ft | 402 kts | 288° |
| 2026-05-08 11:23 | 47.38747 | 18.12873 | 36103 ft | 402 kts | 288° |
| 2026-05-08 11:23 | 47.40787 | 18.05203 | 36095 ft | 401 kts | 288° |
| 2026-05-08 11:24 | 47.42817 | 17.97523 | 36092 ft | 401 kts | 288° |
| 2026-05-08 11:24 | 47.44848 | 17.89841 | 36094 ft | 401 kts | 288° |
| 2026-05-08 11:25 | 47.46878 | 17.82161 | 36094 ft | 401 kts | 287° |
| 2026-05-08 11:25 | 47.48891 | 17.74475 | 36108 ft | 401 kts | 287° |
| 2026-05-08 11:26 | 47.50903 | 17.66774 | 36104 ft | 401 kts | 287° |
| 2026-05-08 11:26 | 47.52914 | 17.59077 | 36103 ft | 402 kts | 287° |
| 2026-05-08 11:27 | 47.54925 | 17.51366 | 36101 ft | 402 kts | 287° |
| 2026-05-08 11:27 | 47.56927 | 17.43642 | 36101 ft | 401 kts | 287° |
| 2026-05-08 11:28 | 47.58911 | 17.35922 | 36105 ft | 401 kts | 287° |
| 2026-05-08 11:28 | 47.60903 | 17.28194 | 36104 ft | 401 kts | 287° |
| 2026-05-08 11:29 | 47.62889 | 17.20468 | 36100 ft | 401 kts | 287° |
| 2026-05-08 11:29 | 47.64867 | 17.12736 | 36106 ft | 401 kts | 287° |
| 2026-05-08 11:30 | 47.66836 | 17.04986 | 36106 ft | 401 kts | 287° |
| 2026-05-08 11:30 | 47.68827 | 16.97248 | 36121 ft | 402 kts | 288° |
| 2026-05-08 11:31 | 47.70962 | 16.89570 | 36118 ft | 403 kts | 288° |
| 2026-05-08 11:31 | 47.73130 | 16.81900 | 36111 ft | 403 kts | 288° |
| 2026-05-08 11:32 | 47.75259 | 16.74194 | 36109 ft | 403 kts | 288° |
| 2026-05-08 11:32 | 47.77369 | 16.66467 | 36112 ft | 403 kts | 288° |
| 2026-05-08 11:33 | 47.79476 | 16.58729 | 36109 ft | 403 kts | 288° |
| 2026-05-08 11:33 | 47.81579 | 16.50993 | 36110 ft | 403 kts | 288° |
| 2026-05-08 11:34 | 47.83680 | 16.43250 | 36110 ft | 403 kts | 288° |
| 2026-05-08 11:34 | 47.85774 | 16.35504 | 36113 ft | 403 kts | 288° |
| 2026-05-08 11:35 | 47.87863 | 16.27758 | 36110 ft | 403 kts | 288° |
| 2026-05-08 11:35 | 47.89945 | 16.20000 | 36114 ft | 403 kts | 287° |
| 2026-05-08 11:36 | 47.92023 | 16.12228 | 36116 ft | 404 kts | 287° |
| 2026-05-08 11:36 | 47.94100 | 16.04441 | 36118 ft | 404 kts | 287° |
| 2026-05-08 11:37 | 47.96167 | 15.96638 | 36126 ft | 405 kts | 287° |
| 2026-05-08 11:37 | 47.98238 | 15.88822 | 36133 ft | 405 kts | 287° |
| 2026-05-08 11:38 | 48.00306 | 15.80997 | 36124 ft | 405 kts | 287° |
| 2026-05-08 11:38 | 48.02374 | 15.73160 | 36120 ft | 406 kts | 287° |
| 2026-05-08 11:39 | 48.04426 | 15.65310 | 36113 ft | 406 kts | 287° |
| 2026-05-08 11:39 | 48.06486 | 15.57465 | 36117 ft | 406 kts | 287° |
| 2026-05-08 11:39 | 48.07517 | 15.53564 | 36525 ft | 401 kts | 287° |
| 2026-05-08 11:40 | 48.08536 | 15.49704 | 36873 ft | 399 kts | 287° |
| 2026-05-08 11:40 | 48.09552 | 15.45837 | 37059 ft | 400 kts | 287° |
| 2026-05-08 11:40 | 48.10565 | 15.41956 | 37226 ft | 401 kts | 287° |
| 2026-05-08 11:40 | 48.11578 | 15.38058 | 37403 ft | 402 kts | 287° |
| 2026-05-08 11:41 | 48.12589 | 15.34160 | 37572 ft | 402 kts | 287° |
| 2026-05-08 11:41 | 48.13603 | 15.30249 | 37751 ft | 403 kts | 287° |
| 2026-05-08 11:41 | 48.14619 | 15.26335 | 37924 ft | 404 kts | 287° |
| 2026-05-08 11:41 | 48.15635 | 15.22415 | 38087 ft | 404 kts | 287° |
| 2026-05-08 11:42 | 48.16653 | 15.18486 | 38092 ft | 405 kts | 287° |
| 2026-05-08 11:42 | 48.18703 | 15.10552 | 38098 ft | 406 kts | 287° |
| 2026-05-08 11:43 | 48.20732 | 15.02650 | 38097 ft | 407 kts | 287° |
| 2026-05-08 11:43 | 48.22417 | 14.96069 | 38097 ft | 407 kts | 287° |
| 2026-05-08 11:44 | 48.24446 | 14.88154 | 38098 ft | 407 kts | 287° |
| 2026-05-08 11:44 | 48.26468 | 14.80221 | 38100 ft | 407 kts | 287° |
| 2026-05-08 11:45 | 48.28820 | 14.70934 | 38119 ft | 407 kts | 287° |
| 2026-05-08 11:45 | 48.30491 | 14.64315 | 38123 ft | 408 kts | 287° |
| 2026-05-08 11:46 | 48.32499 | 14.56350 | 38118 ft | 408 kts | 287° |
| 2026-05-08 11:46 | 48.34499 | 14.48376 | 38114 ft | 408 kts | 287° |
| 2026-05-08 11:47 | 48.36496 | 14.40389 | 38115 ft | 408 kts | 287° |
| 2026-05-08 11:47 | 48.38484 | 14.32404 | 38116 ft | 408 kts | 287° |
| 2026-05-08 11:48 | 48.40471 | 14.24406 | 38109 ft | 408 kts | 287° |
| 2026-05-08 11:48 | 48.42455 | 14.16396 | 38103 ft | 409 kts | 287° |
| 2026-05-08 11:49 | 48.44436 | 14.08373 | 38117 ft | 409 kts | 287° |
| 2026-05-08 11:49 | 48.46409 | 14.00335 | 38120 ft | 409 kts | 287° |
| 2026-05-08 11:50 | 48.48377 | 13.92285 | 38141 ft | 409 kts | 287° |
| 2026-05-08 11:50 | 48.50344 | 13.84218 | 38116 ft | 410 kts | 287° |
| 2026-05-08 11:51 | 48.52308 | 13.76136 | 38120 ft | 411 kts | 287° |
| 2026-05-08 11:51 | 48.54273 | 13.68047 | 38119 ft | 410 kts | 287° |
| 2026-05-08 11:52 | 48.56224 | 13.59957 | 38124 ft | 410 kts | 287° |
| 2026-05-08 11:52 | 48.58163 | 13.51857 | 38127 ft | 410 kts | 287° |
| 2026-05-08 11:53 | 48.60113 | 13.43751 | 38123 ft | 411 kts | 287° |
| 2026-05-08 11:53 | 48.62075 | 13.35637 | 38122 ft | 411 kts | 287° |
| 2026-05-08 11:54 | 48.64028 | 13.27507 | 38122 ft | 412 kts | 287° |
| 2026-05-08 11:54 | 48.65971 | 13.19355 | 38126 ft | 412 kts | 287° |
| 2026-05-08 11:55 | 48.67908 | 13.11197 | 38139 ft | 412 kts | 287° |
| 2026-05-08 11:55 | 48.69844 | 13.03030 | 38132 ft | 413 kts | 287° |
| 2026-05-08 11:56 | 48.71776 | 12.94846 | 38132 ft | 413 kts | 287° |
| 2026-05-08 11:56 | 48.73705 | 12.86653 | 38130 ft | 413 kts | 287° |
| 2026-05-08 11:57 | 48.75622 | 12.78440 | 38127 ft | 414 kts | 287° |
| 2026-05-08 11:57 | 48.77536 | 12.70219 | 38127 ft | 414 kts | 286° |
| 2026-05-08 11:58 | 48.79462 | 12.61935 | 38131 ft | 414 kts | 287° |
| 2026-05-08 11:58 | 48.81373 | 12.53703 | 38132 ft | 414 kts | 286° |
| 2026-05-08 11:59 | 48.84225 | 12.41325 | 38130 ft | 414 kts | 286° |
| 2026-05-08 11:59 | 48.86114 | 12.33061 | 38140 ft | 414 kts | 286° |
| 2026-05-08 12:00 | 48.88007 | 12.24789 | 38141 ft | 415 kts | 287° |
| 2026-05-08 12:00 | 48.89870 | 12.16475 | 38133 ft | 416 kts | 285° |
| 2026-05-08 12:01 | 48.91651 | 12.08115 | 38131 ft | 416 kts | 285° |
| 2026-05-08 12:01 | 48.93410 | 11.99727 | 38131 ft | 416 kts | 285° |
| 2026-05-08 12:02 | 48.95180 | 11.91339 | 38138 ft | 417 kts | 285° |
| 2026-05-08 12:02 | 48.96958 | 11.82942 | 38128 ft | 417 kts | 285° |
| 2026-05-08 12:03 | 48.98737 | 11.74527 | 38129 ft | 418 kts | 285° |
| 2026-05-08 12:03 | 49.00507 | 11.66098 | 38126 ft | 418 kts | 285° |
| 2026-05-08 12:04 | 49.02269 | 11.57668 | 38122 ft | 418 kts | 285° |
| 2026-05-08 12:04 | 49.04029 | 11.49224 | 38134 ft | 418 kts | 285° |
| 2026-05-08 12:05 | 49.05776 | 11.40778 | 38128 ft | 418 kts | 285° |
| 2026-05-08 12:05 | 49.07514 | 11.32308 | 38130 ft | 419 kts | 285° |
| 2026-05-08 12:06 | 49.09250 | 11.23822 | 38127 ft | 419 kts | 285° |
| 2026-05-08 12:06 | 49.10989 | 11.15346 | 38132 ft | 419 kts | 285° |
| 2026-05-08 12:07 | 49.12726 | 11.06842 | 38142 ft | 420 kts | 285° |
| 2026-05-08 12:07 | 49.14455 | 10.98330 | 38165 ft | 420 kts | 285° |
| 2026-05-08 12:08 | 49.16174 | 10.89802 | 38166 ft | 420 kts | 285° |
| 2026-05-08 12:08 | 49.17886 | 10.81268 | 38188 ft | 420 kts | 285° |
| 2026-05-08 12:09 | 49.19590 | 10.72717 | 38191 ft | 421 kts | 285° |
| 2026-05-08 12:09 | 49.21202 | 10.64118 | 38206 ft | 420 kts | 283° |
| 2026-05-08 12:10 | 49.22710 | 10.55493 | 38159 ft | 420 kts | 283° |
| 2026-05-08 12:10 | 49.24220 | 10.46866 | 38159 ft | 420 kts | 283° |
| 2026-05-08 12:11 | 49.25746 | 10.38233 | 38164 ft | 420 kts | 283° |
| 2026-05-08 12:11 | 49.27267 | 10.29594 | 38163 ft | 420 kts | 283° |
| 2026-05-08 12:12 | 49.28783 | 10.20945 | 38170 ft | 420 kts | 283° |
| 2026-05-08 12:12 | 49.30286 | 10.12294 | 38163 ft | 420 kts | 283° |
| 2026-05-08 12:13 | 49.31792 | 10.03634 | 38160 ft | 421 kts | 283° |
| 2026-05-08 12:13 | 49.33287 | 9.94968 | 38159 ft | 420 kts | 283° |
| 2026-05-08 12:14 | 49.34771 | 9.86299 | 38157 ft | 421 kts | 283° |
| 2026-05-08 12:14 | 49.36258 | 9.77617 | 38164 ft | 421 kts | 283° |
| 2026-05-08 12:15 | 49.37734 | 9.68931 | 38153 ft | 421 kts | 283° |
| 2026-05-08 12:15 | 49.39208 | 9.60242 | 38147 ft | 421 kts | 283° |
| 2026-05-08 12:16 | 49.40676 | 9.51544 | 38144 ft | 421 kts | 283° |
| 2026-05-08 12:16 | 49.42135 | 9.42844 | 38136 ft | 421 kts | 283° |
| 2026-05-08 12:17 | 49.43588 | 9.34133 | 38135 ft | 421 kts | 283° |
| 2026-05-08 12:17 | 49.45033 | 9.25412 | 38127 ft | 421 kts | 283° |
| 2026-05-08 12:18 | 49.46462 | 9.16680 | 38129 ft | 421 kts | 282° |
| 2026-05-08 12:18 | 49.47795 | 9.07912 | 38125 ft | 421 kts | 281° |
| 2026-05-08 12:19 | 49.48996 | 8.99100 | 38123 ft | 421 kts | 280° |
| 2026-05-08 12:19 | 49.50177 | 8.90282 | 38131 ft | 421 kts | 280° |
| 2026-05-08 12:20 | 49.51391 | 8.81458 | 38123 ft | 422 kts | 281° |
| 2026-05-08 12:20 | 49.52613 | 8.72629 | 38127 ft | 422 kts | 281° |
| 2026-05-08 12:21 | 49.53820 | 8.63793 | 38130 ft | 422 kts | 280° |
| 2026-05-08 12:21 | 49.55015 | 8.54947 | 38125 ft | 422 kts | 280° |
| 2026-05-08 12:22 | 49.56012 | 8.47538 | 38126 ft | 422 kts | 280° |
| 2026-05-08 12:22 | 49.57195 | 8.38680 | 38122 ft | 422 kts | 280° |
| 2026-05-08 12:23 | 49.58378 | 8.29816 | 38124 ft | 422 kts | 280° |
| 2026-05-08 12:23 | 49.59547 | 8.20958 | 38126 ft | 422 kts | 280° |
| 2026-05-08 12:24 | 49.60714 | 8.12085 | 38122 ft | 422 kts | 280° |
| 2026-05-08 12:24 | 49.61876 | 8.03206 | 38126 ft | 423 kts | 280° |
| 2026-05-08 12:25 | 49.63029 | 7.94317 | 38122 ft | 423 kts | 280° |
| 2026-05-08 12:25 | 49.64176 | 7.85414 | 38119 ft | 423 kts | 280° |
| 2026-05-08 12:26 | 49.65314 | 7.76503 | 38114 ft | 423 kts | 280° |
| 2026-05-08 12:26 | 49.66450 | 7.67591 | 38110 ft | 423 kts | 280° |
| 2026-05-08 12:27 | 49.67584 | 7.58665 | 38114 ft | 424 kts | 279° |
| 2026-05-08 12:27 | 49.68703 | 7.49735 | 38119 ft | 424 kts | 279° |
| 2026-05-08 12:28 | 49.69809 | 7.40786 | 38121 ft | 424 kts | 279° |
| 2026-05-08 12:28 | 49.70921 | 7.31833 | 38117 ft | 424 kts | 279° |
| 2026-05-08 12:29 | 49.72032 | 7.22873 | 38128 ft | 424 kts | 279° |
| 2026-05-08 12:29 | 49.73132 | 7.13918 | 38120 ft | 424 kts | 279° |
| 2026-05-08 12:30 | 49.74216 | 7.04962 | 38115 ft | 424 kts | 279° |
| 2026-05-08 12:30 | 49.75288 | 6.96007 | 38112 ft | 424 kts | 279° |
| 2026-05-08 12:31 | 49.76368 | 6.87037 | 38108 ft | 424 kts | 279° |
| 2026-05-08 12:31 | 49.77440 | 6.78066 | 38128 ft | 424 kts | 279° |
| 2026-05-08 12:32 | 49.78502 | 6.69082 | 38124 ft | 425 kts | 279° |
| 2026-05-08 12:32 | 49.79558 | 6.60086 | 38120 ft | 425 kts | 279° |
| 2026-05-08 12:33 | 49.80603 | 6.51089 | 38117 ft | 425 kts | 279° |
| 2026-05-08 12:33 | 49.81268 | 6.42030 | 38110 ft | 423 kts | 266° |
| 2026-05-08 12:34 | 49.80332 | 6.33072 | 38113 ft | 422 kts | 258° |
| 2026-05-08 12:34 | 49.79156 | 6.24156 | 38099 ft | 423 kts | 258° |
| 2026-05-08 12:35 | 49.77982 | 6.15237 | 38098 ft | 423 kts | 258° |
| 2026-05-08 12:35 | 49.76792 | 6.06331 | 38100 ft | 423 kts | 258° |
| 2026-05-08 12:36 | 49.75586 | 5.97424 | 38106 ft | 423 kts | 258° |
| 2026-05-08 12:36 | 49.74381 | 5.88514 | 38107 ft | 424 kts | 257° |
| 2026-05-08 12:37 | 49.72532 | 5.79878 | 38113 ft | 423 kts | 250° |
| 2026-05-08 12:37 | 49.70540 | 5.71313 | 38112 ft | 424 kts | 250° |
| 2026-05-08 12:38 | 49.68529 | 5.62671 | 37792 ft | 436 kts | 250° |
| 2026-05-08 12:38 | 49.67492 | 5.58219 | 37536 ft | 444 kts | 250° |
| 2026-05-08 12:38 | 49.66443 | 5.53722 | 37272 ft | 447 kts | 250° |
| 2026-05-08 12:39 | 49.65389 | 5.49227 | 36977 ft | 443 kts | 250° |
| 2026-05-08 12:39 | 49.64340 | 5.44777 | 36388 ft | 439 kts | 250° |
| 2026-05-08 12:39 | 49.63298 | 5.40376 | 35845 ft | 436 kts | 250° |
| 2026-05-08 12:39 | 49.62255 | 5.35963 | 35008 ft | 439 kts | 250° |
| 2026-05-08 12:40 | 49.61259 | 5.31541 | 34591 ft | 433 kts | 251° |
| 2026-05-08 12:40 | 49.60315 | 5.27141 | 33884 ft | 434 kts | 252° |
| 2026-05-08 12:40 | 49.59514 | 5.22651 | 33090 ft | 435 kts | 259° |
| 2026-05-08 12:40 | 49.59207 | 5.18052 | 32605 ft | 430 kts | 268° |
| 2026-05-08 12:41 | 49.59246 | 5.13473 | 32095 ft | 426 kts | 270° |
| 2026-05-08 12:41 | 49.59291 | 5.08928 | 31576 ft | 422 kts | 269° |
| 2026-05-08 12:41 | 49.59323 | 5.04428 | 31064 ft | 418 kts | 269° |
| 2026-05-08 12:41 | 49.59349 | 4.99962 | 30555 ft | 415 kts | 269° |
| 2026-05-08 12:42 | 49.59375 | 4.95529 | 30028 ft | 412 kts | 269° |
| 2026-05-08 12:42 | 49.59403 | 4.91141 | 29503 ft | 407 kts | 269° |
| 2026-05-08 12:42 | 49.59429 | 4.86797 | 29017 ft | 403 kts | 269° |
| 2026-05-08 12:42 | 49.59453 | 4.82512 | 28536 ft | 398 kts | 269° |
| 2026-05-08 12:43 | 49.59477 | 4.78272 | 28068 ft | 393 kts | 269° |
| 2026-05-08 12:43 | 49.59501 | 4.74081 | 27670 ft | 388 kts | 269° |
| 2026-05-08 12:43 | 49.59521 | 4.69946 | 27250 ft | 384 kts | 269° |
| 2026-05-08 12:43 | 49.59542 | 4.65848 | 26847 ft | 381 kts | 269° |
| 2026-05-08 12:44 | 49.59563 | 4.61781 | 26442 ft | 378 kts | 269° |
| 2026-05-08 12:44 | 49.59583 | 4.57741 | 26044 ft | 376 kts | 269° |
| 2026-05-08 12:44 | 49.59602 | 4.53726 | 25650 ft | 374 kts | 269° |
| 2026-05-08 12:44 | 49.59618 | 4.49672 | 25248 ft | 373 kts | 269° |
| 2026-05-08 12:45 | 49.59631 | 4.45687 | 24859 ft | 371 kts | 269° |
| 2026-05-08 12:45 | 49.59642 | 4.41719 | 24468 ft | 369 kts | 269° |
| 2026-05-08 12:45 | 49.59649 | 4.37771 | 24078 ft | 367 kts | 269° |
| 2026-05-08 12:45 | 49.59653 | 4.33847 | 23692 ft | 365 kts | 269° |
| 2026-05-08 12:46 | 49.59659 | 4.29941 | 23261 ft | 363 kts | 269° |
| 2026-05-08 12:46 | 49.59668 | 4.26071 | 22882 ft | 360 kts | 269° |
| 2026-05-08 12:46 | 49.59674 | 4.22229 | 22503 ft | 357 kts | 269° |
| 2026-05-08 12:46 | 49.59678 | 4.18408 | 22129 ft | 355 kts | 269° |
| 2026-05-08 12:47 | 49.59679 | 4.14609 | 21752 ft | 353 kts | 269° |
| 2026-05-08 12:47 | 49.59641 | 4.10837 | 21377 ft | 351 kts | 264° |
| 2026-05-08 12:47 | 49.59208 | 4.07163 | 21012 ft | 347 kts | 252° |
| 2026-05-08 12:47 | 49.58325 | 4.03720 | 20641 ft | 345 kts | 242° |
| 2026-05-08 12:48 | 49.57084 | 4.00577 | 20282 ft | 343 kts | 237° |
| 2026-05-08 12:48 | 49.55789 | 3.97499 | 19917 ft | 341 kts | 237° |
| 2026-05-08 12:48 | 49.54501 | 3.94444 | 19556 ft | 339 kts | 237° |
| 2026-05-08 12:48 | 49.53221 | 3.91400 | 19194 ft | 337 kts | 237° |
| 2026-05-08 12:49 | 49.51950 | 3.88378 | 18837 ft | 336 kts | 237° |
| 2026-05-08 12:49 | 49.50682 | 3.85372 | 18483 ft | 334 kts | 237° |
| 2026-05-08 12:49 | 49.49419 | 3.82384 | 18104 ft | 332 kts | 237° |
| 2026-05-08 12:49 | 49.48176 | 3.79404 | 17743 ft | 331 kts | 239° |
| 2026-05-08 12:50 | 49.47230 | 3.76197 | 17392 ft | 330 kts | 251° |
| 2026-05-08 12:50 | 49.46637 | 3.72791 | 17045 ft | 329 kts | 255° |
| 2026-05-08 12:50 | 49.46071 | 3.69396 | 16696 ft | 328 kts | 254° |
| 2026-05-08 12:50 | 49.45498 | 3.66010 | 16350 ft | 326 kts | 254° |
| 2026-05-08 12:51 | 49.44926 | 3.62644 | 16008 ft | 325 kts | 254° |
| 2026-05-08 12:51 | 49.43787 | 3.55946 | 15674 ft | 324 kts | 254° |
| 2026-05-08 12:51 | 49.43216 | 3.52594 | 15485 ft | 324 kts | 254° |
| 2026-05-08 12:52 | 49.42645 | 3.49249 | 15299 ft | 323 kts | 254° |
| 2026-05-08 12:52 | 49.41297 | 3.42696 | 14834 ft | 321 kts | 247° |
| 2026-05-08 12:52 | 49.40455 | 3.39535 | 14575 ft | 320 kts | 247° |
| 2026-05-08 12:53 | 49.39611 | 3.36383 | 14325 ft | 319 kts | 246° |
| 2026-05-08 12:53 | 49.38767 | 3.33241 | 14070 ft | 318 kts | 246° |
| 2026-05-08 12:53 | 49.37927 | 3.30104 | 13821 ft | 317 kts | 246° |
| 2026-05-08 12:53 | 49.37089 | 3.26978 | 13559 ft | 316 kts | 246° |
| 2026-05-08 12:54 | 49.36253 | 3.23866 | 13298 ft | 315 kts | 246° |
| 2026-05-08 12:54 | 49.35418 | 3.20764 | 13055 ft | 314 kts | 246° |
| 2026-05-08 12:54 | 49.34587 | 3.17677 | 12810 ft | 313 kts | 246° |
| 2026-05-08 12:54 | 49.33757 | 3.14603 | 12561 ft | 311 kts | 246° |
| 2026-05-08 12:55 | 49.32931 | 3.11549 | 12319 ft | 310 kts | 246° |
| 2026-05-08 12:55 | 49.32104 | 3.08499 | 12085 ft | 309 kts | 246° |
| 2026-05-08 12:55 | 49.31279 | 3.05457 | 11831 ft | 308 kts | 246° |
| 2026-05-08 12:55 | 49.30456 | 3.02429 | 11591 ft | 307 kts | 246° |
| 2026-05-08 12:56 | 49.29635 | 2.99411 | 11348 ft | 306 kts | 246° |
| 2026-05-08 12:56 | 49.28819 | 2.96406 | 11116 ft | 305 kts | 247° |
| 2026-05-08 12:56 | 49.28005 | 2.93403 | 11002 ft | 304 kts | 247° |
| 2026-05-08 12:56 | 49.27192 | 2.90408 | 11024 ft | 305 kts | 247° |
| 2026-05-08 12:57 | 49.26374 | 2.87403 | 11018 ft | 305 kts | 246° |
| 2026-05-08 12:57 | 49.25563 | 2.84433 | 11015 ft | 297 kts | 246° |
| 2026-05-08 12:57 | 49.24783 | 2.81584 | 11022 ft | 287 kts | 246° |
| 2026-05-08 12:57 | 49.24013 | 2.78777 | 11023 ft | 285 kts | 246° |
| 2026-05-08 12:58 | 49.23244 | 2.75981 | 11022 ft | 285 kts | 246° |
| 2026-05-08 12:58 | 49.22473 | 2.73181 | 11022 ft | 285 kts | 246° |
| 2026-05-08 12:58 | 49.21704 | 2.70390 | 11013 ft | 285 kts | 246° |
| 2026-05-08 12:58 | 49.20934 | 2.67599 | 11016 ft | 285 kts | 246° |
| 2026-05-08 12:59 | 49.20163 | 2.64802 | 11020 ft | 285 kts | 246° |
| 2026-05-08 12:59 | 49.19643 | 2.62914 | 11012 ft | 285 kts | 247° |
| 2026-05-08 12:59 | 49.18626 | 2.59218 | 11011 ft | 285 kts | 248° |
| 2026-05-08 12:59 | 49.18116 | 2.56291 | 11014 ft | 286 kts | 262° |
| 2026-05-08 13:00 | 49.18034 | 2.54242 | 11010 ft | 286 kts | 268° |
| 2026-05-08 13:00 | 49.17977 | 2.51201 | 11014 ft | 286 kts | 267° |
| 2026-05-08 13:00 | 49.17916 | 2.48162 | 11019 ft | 286 kts | 267° |
| 2026-05-08 13:00 | 49.17849 | 2.45132 | 11013 ft | 285 kts | 267° |
| 2026-05-08 13:01 | 49.17780 | 2.42103 | 11015 ft | 286 kts | 267° |
| 2026-05-08 13:01 | 49.17710 | 2.39062 | 10826 ft | 287 kts | 267° |
| 2026-05-08 13:01 | 49.17645 | 2.36030 | 10544 ft | 284 kts | 268° |
| 2026-05-08 13:01 | 49.17606 | 2.33020 | 10202 ft | 283 kts | 268° |
| 2026-05-08 13:02 | 49.17579 | 2.30020 | 9892 ft | 281 kts | 269° |
| 2026-05-08 13:02 | 49.17557 | 2.27041 | 9558 ft | 280 kts | 269° |
| 2026-05-08 13:02 | 49.17533 | 2.24070 | 9186 ft | 279 kts | 269° |
| 2026-05-08 13:02 | 49.17506 | 2.21114 | 8843 ft | 278 kts | 269° |
| 2026-05-08 13:03 | 49.17477 | 2.18156 | 8443 ft | 279 kts | 269° |
| 2026-05-08 13:03 | 49.17444 | 2.15191 | 8085 ft | 279 kts | 269° |
| 2026-05-08 13:03 | 49.17409 | 2.12242 | 8009 ft | 278 kts | 269° |
| 2026-05-08 13:03 | 49.17373 | 2.09279 | 8007 ft | 280 kts | 269° |
| 2026-05-08 13:04 | 49.17337 | 2.06305 | 8010 ft | 280 kts | 269° |
| 2026-05-08 13:04 | 49.17301 | 2.03327 | 8011 ft | 280 kts | 269° |
| 2026-05-08 13:04 | 49.17263 | 2.00353 | 8008 ft | 280 kts | 269° |
| 2026-05-08 13:04 | 49.17223 | 1.97382 | 8008 ft | 280 kts | 269° |
| 2026-05-08 13:05 | 49.17185 | 1.94401 | 8010 ft | 280 kts | 269° |
| 2026-05-08 13:05 | 49.17147 | 1.91427 | 8009 ft | 280 kts | 269° |
| 2026-05-08 13:05 | 49.17108 | 1.88452 | 8008 ft | 280 kts | 269° |
| 2026-05-08 13:05 | 49.17067 | 1.85484 | 8012 ft | 278 kts | 269° |
| 2026-05-08 13:06 | 49.16872 | 1.82544 | 7990 ft | 278 kts | 253° |
| 2026-05-08 13:06 | 49.15943 | 1.79998 | 7664 ft | 276 kts | 226° |
| 2026-05-08 13:06 | 49.14360 | 1.78406 | 7313 ft | 274 kts | 198° |
| 2026-05-08 13:06 | 49.12483 | 1.78126 | 6965 ft | 273 kts | 170° |
| 2026-05-08 13:07 | 49.10743 | 1.79218 | 6626 ft | 272 kts | 142° |
| 2026-05-08 13:07 | 49.09368 | 1.81196 | 6262 ft | 272 kts | 133° |
| 2026-05-08 13:07 | 49.08080 | 1.83306 | 5933 ft | 271 kts | 132° |
| 2026-05-08 13:07 | 49.06820 | 1.85390 | 5782 ft | 263 kts | 132° |
| 2026-05-08 13:08 | 49.05601 | 1.87409 | 5647 ft | 255 kts | 131° |
| 2026-05-08 13:08 | 49.04409 | 1.89353 | 5499 ft | 248 kts | 132° |
| 2026-05-08 13:08 | 49.03243 | 1.91257 | 5253 ft | 245 kts | 131° |
| 2026-05-08 13:08 | 49.02081 | 1.93131 | 4997 ft | 242 kts | 132° |
| 2026-05-08 13:09 | 49.00924 | 1.94989 | 4710 ft | 241 kts | 131° |
| 2026-05-08 13:09 | 48.99941 | 1.97014 | 4444 ft | 236 kts | 114° |
| 2026-05-08 13:09 | 48.99523 | 1.99402 | 4137 ft | 233 kts | 92° |
| 2026-05-08 13:09 | 48.99615 | 2.01842 | 4008 ft | 232 kts | 84° |
| 2026-05-08 13:10 | 48.99763 | 2.04338 | 4008 ft | 235 kts | 85° |
| 2026-05-08 13:10 | 48.99908 | 2.06832 | 4010 ft | 235 kts | 84° |
| 2026-05-08 13:10 | 49.00052 | 2.09310 | 4009 ft | 234 kts | 84° |
| 2026-05-08 13:10 | 49.00195 | 2.11783 | 4010 ft | 235 kts | 85° |
| 2026-05-08 13:11 | 49.00338 | 2.14264 | 4010 ft | 236 kts | 85° |
| 2026-05-08 13:11 | 49.00481 | 2.16758 | 4011 ft | 236 kts | 85° |
| 2026-05-08 13:11 | 49.00622 | 2.19238 | 4003 ft | 234 kts | 85° |
| 2026-05-08 13:11 | 49.00763 | 2.21708 | 4007 ft | 236 kts | 84° |
| 2026-05-08 13:12 | 49.00905 | 2.24202 | 3948 ft | 235 kts | 85° |
| 2026-05-08 13:12 | 49.01043 | 2.26656 | 3707 ft | 231 kts | 85° |
| 2026-05-08 13:12 | 49.01179 | 2.29070 | 3422 ft | 227 kts | 85° |
| 2026-05-08 13:12 | 49.01313 | 2.31451 | 3128 ft | 225 kts | 84° |
| 2026-05-08 13:13 | 49.01445 | 2.33822 | 2820 ft | 224 kts | 85° |
| 2026-05-08 13:13 | 49.01576 | 2.36176 | 2521 ft | 223 kts | 84° |
| 2026-05-08 13:13 | 49.01705 | 2.38492 | 2229 ft | 214 kts | 84° |
| 2026-05-08 13:13 | 49.01826 | 2.40695 | 1943 ft | 203 kts | 84° |
| 2026-05-08 13:14 | 49.01941 | 2.42777 | 1693 ft | 191 kts | 85° |
| 2026-05-08 13:14 | 49.02048 | 2.44728 | 1440 ft | 180 kts | 85° |
| 2026-05-08 13:14 | 49.02148 | 2.46540 | 1202 ft | 162 kts | 84° |
| 2026-05-08 13:14 | 49.02235 | 2.48148 | 993 ft | 147 kts | 84° |
| 2026-05-08 13:15 | 49.02316 | 2.49664 | 771 ft | 143 kts | 83° |
| 2026-05-08 13:15 | 49.02401 | 2.51145 | 550 ft | 141 kts | 83° |
| 2026-05-08 13:15 | 49.02480 | 2.52624 | 381 ft | 139 kts | 83° |
| 2026-05-08 13:15 | 49.02550 | 2.53855 | 357 ft | 79 kts | 85° |
| 2026-05-08 13:16 | 49.02566 | 2.54412 | 359 ft | 42 kts | 96° |
| 2026-05-08 13:16 | 49.02521 | 2.54696 | 360 ft | 23 kts | 105° |
| 2026-05-08 13:16 | 49.02485 | 2.54902 | 354 ft | 20 kts | 104° |
| 2026-05-08 13:16 | 49.02447 | 2.55121 | 358 ft | 22 kts | 99° |
| 2026-05-08 13:17 | 49.02456 | 2.55360 | 357 ft | 20 kts | 85° |
| 2026-05-08 13:17 | 49.02456 | 2.55551 | 357 ft | 17 kts | 111° |
| 2026-05-08 13:17 | 49.02351 | 2.55621 | 354 ft | 19 kts | 175° |
| 2026-05-08 13:17 | 49.02229 | 2.55635 | 357 ft | 15 kts | 175° |
| 2026-05-08 13:18 | 49.02157 | 2.55645 | 357 ft | 7 kts | 175° |
| 2026-05-08 13:18 | 49.02151 | 2.55645 | 356 ft | 0 kts | 175° |
| 2026-05-08 13:19 | 49.02150 | 2.55645 | 356 ft | 0 kts | 175° |
| 2026-05-08 13:19 | 49.02129 | 2.55648 | 354 ft | 6 kts | 175° |
| 2026-05-08 13:19 | 49.02062 | 2.55657 | 357 ft | 12 kts | 175° |
| 2026-05-08 13:19 | 49.01968 | 2.55669 | 354 ft | 15 kts | 175° |
| 2026-05-08 13:20 | 49.01890 | 2.55600 | 356 ft | 16 kts | 257° |
| 2026-05-08 13:20 | 49.01879 | 2.55422 | 354 ft | 18 kts | 265° |
| 2026-05-08 13:20 | 49.01868 | 2.55218 | 354 ft | 20 kts | 266° |
| 2026-05-08 13:20 | 49.01857 | 2.54995 | 354 ft | 21 kts | 266° |
| 2026-05-08 13:21 | 49.01774 | 2.54862 | 354 ft | 21 kts | 179° |
| 2026-05-08 13:21 | 49.01621 | 2.54882 | 354 ft | 23 kts | 174° |
| 2026-05-08 13:21 | 49.01469 | 2.54901 | 361 ft | 10 kts | 174° |
| 2026-05-08 13:21 | 49.01393 | 2.54919 | 363 ft | 12 kts | 167° |
| 2026-05-08 13:22 | 49.01305 | 2.54955 | 358 ft | 14 kts | 165° |
| 2026-05-08 13:22 | 49.01239 | 2.55050 | 361 ft | 16 kts | 89° |
| 2026-05-08 13:22 | 49.01247 | 2.55227 | 354 ft | 15 kts | 86° |
| 2026-05-08 13:22 | 49.01252 | 2.55354 | 357 ft | 11 kts | 86° |
| 2026-05-08 13:23 | 49.01281 | 2.55414 | 355 ft | 9 kts | 6° |
| 2026-05-08 13:23 | 49.01331 | 2.55406 | 354 ft | 4 kts | 355° |
| 2026-05-08 13:23 | 49.01339 | 2.55405 | 354 ft | 0 kts | 355° |